sensor_id;sensor_type;location;lat;lon;timestamp;noise_LAeq;noise_LA_min;noise_LA_max;noise_LA01;noise_LA95
80580;Laerm;69939;52.402;6.608;2023-09-19T00:01:20;45.52;35.16;59.68;;
80580;Laerm;69939;52.402;6.608;2023-09-19T00:03:50;45.24;35.36;60.54;;
80580;Laerm;69939;52.402;6.608;2023-09-19T00:06:19;46.98;35.38;60.38;;
80580;Laerm;69939;52.402;6.608;2023-09-19T00:08:48;50.24;35.56;67.86;;
80580;Laerm;69939;52.402;6.608;2023-09-19T00:11:25;53.69;37.42;68.19;;
80580;Laerm;69939;52.402;6.608;2023-09-19T00:13:55;51.86;35.20;70.05;;
80580;Laerm;69939;52.402;6.608;2023-09-19T00:16:25;45.71;35.04;63.47;;
80580;Laerm;69939;52.402;6.608;2023-09-19T00:18:54;42.51;34.77;59.93;;
80580;Laerm;69939;52.402;6.608;2023-09-19T00:21:23;42.96;34.87;59.25;;
80580;Laerm;69939;52.402;6.608;2023-09-19T00:23:52;61.42;35.86;79.98;;
80580;Laerm;69939;52.402;6.608;2023-09-19T00:26:25;47.83;36.07;61.33;;
80580;Laerm;69939;52.402;6.608;2023-09-19T00:28:56;46.76;35.24;66.89;;
80580;Laerm;69939;52.402;6.608;2023-09-19T00:31:34;46.34;35.85;67.50;;
80580;Laerm;69939;52.402;6.608;2023-09-19T00:34:04;60.27;38.21;75.63;;
80580;Laerm;69939;52.402;6.608;2023-09-19T00:36:36;46.86;36.51;60.83;;
80580;Laerm;69939;52.402;6.608;2023-09-19T00:39:05;56.35;38.38;70.58;;
80580;Laerm;69939;52.402;6.608;2023-09-19T00:41:38;54.07;36.08;70.47;;
80580;Laerm;69939;52.402;6.608;2023-09-19T00:44:10;48.37;35.67;67.14;;
80580;Laerm;69939;52.402;6.608;2023-09-19T00:46:41;53.50;37.39;75.32;;
80580;Laerm;69939;52.402;6.608;2023-09-19T00:49:14;57.09;36.10;73.47;;
80580;Laerm;69939;52.402;6.608;2023-09-19T00:51:46;51.62;34.57;67.83;;
80580;Laerm;69939;52.402;6.608;2023-09-19T00:54:18;47.51;36.46;65.44;;
80580;Laerm;69939;52.402;6.608;2023-09-19T00:56:51;45.72;35.19;62.86;;
80580;Laerm;69939;52.402;6.608;2023-09-19T00:59:20;45.45;35.68;63.47;;
80580;Laerm;69939;52.402;6.608;2023-09-19T01:01:50;51.89;36.27;66.93;;
80580;Laerm;69939;52.402;6.608;2023-09-19T01:04:20;43.74;35.57;60.33;;
80580;Laerm;69939;52.402;6.608;2023-09-19T01:06:50;60.51;38.90;74.00;;
80580;Laerm;69939;52.402;6.608;2023-09-19T01:09:21;56.84;36.32;70.85;;
80580;Laerm;69939;52.402;6.608;2023-09-19T01:11:58;42.73;35.34;59.62;;
80580;Laerm;69939;52.402;6.608;2023-09-19T01:14:40;47.88;36.52;69.85;;
80580;Laerm;69939;52.402;6.608;2023-09-19T01:17:20;46.08;36.56;64.09;;
80580;Laerm;69939;52.402;6.608;2023-09-19T01:20:16;44.81;36.64;60.41;;
80580;Laerm;69939;52.402;6.608;2023-09-19T01:23:08;46.77;36.23;69.22;;
80580;Laerm;69939;52.402;6.608;2023-09-19T01:26:04;50.80;36.43;69.71;;
80580;Laerm;69939;52.402;6.608;2023-09-19T01:28:52;44.24;35.76;60.94;;
80580;Laerm;69939;52.402;6.608;2023-09-19T01:31:32;60.00;38.70;74.90;;
80580;Laerm;69939;52.402;6.608;2023-09-19T01:34:03;57.60;37.69;72.56;;
80580;Laerm;69939;52.402;6.608;2023-09-19T01:36:36;52.11;37.56;68.28;;
80580;Laerm;69939;52.402;6.608;2023-09-19T01:39:09;56.35;37.90;79.37;;
80580;Laerm;69939;52.402;6.608;2023-09-19T01:41:54;55.85;36.83;78.48;;
80580;Laerm;69939;52.402;6.608;2023-09-19T01:44:35;50.94;36.91;74.21;;
80580;Laerm;69939;52.402;6.608;2023-09-19T01:47:18;56.29;37.41;71.01;;
80580;Laerm;69939;52.402;6.608;2023-09-19T01:49:58;45.28;37.04;61.71;;
80580;Laerm;69939;52.402;6.608;2023-09-19T01:52:40;55.59;36.82;70.93;;
80580;Laerm;69939;52.402;6.608;2023-09-19T01:55:15;54.67;38.31;70.14;;
80580;Laerm;69939;52.402;6.608;2023-09-19T01:57:54;49.65;37.96;70.37;;
80580;Laerm;69939;52.402;6.608;2023-09-19T02:00:28;54.50;36.53;73.54;;
80580;Laerm;69939;52.402;6.608;2023-09-19T02:03:01;52.97;36.03;69.03;;
80580;Laerm;69939;52.402;6.608;2023-09-19T02:05:31;45.46;35.69;62.48;;
80580;Laerm;69939;52.402;6.608;2023-09-19T02:08:01;55.69;36.21;72.17;;
80580;Laerm;69939;52.402;6.608;2023-09-19T02:10:30;44.50;35.75;59.70;;
80580;Laerm;69939;52.402;6.608;2023-09-19T02:12:59;61.41;38.02;72.84;;
80580;Laerm;69939;52.402;6.608;2023-09-19T02:15:31;57.08;36.27;74.60;;
80580;Laerm;69939;52.402;6.608;2023-09-19T02:18:04;43.88;36.68;60.31;;
80580;Laerm;69939;52.402;6.608;2023-09-19T02:20:32;47.99;37.04;67.36;;
80580;Laerm;69939;52.402;6.608;2023-09-19T02:23:01;58.97;37.24;75.32;;
80580;Laerm;69939;52.402;6.608;2023-09-19T02:25:30;55.13;37.89;71.05;;
80580;Laerm;69939;52.402;6.608;2023-09-19T02:28:00;51.35;36.98;66.90;;
80580;Laerm;69939;52.402;6.608;2023-09-19T02:30:31;57.86;37.03;73.71;;
80580;Laerm;69939;52.402;6.608;2023-09-19T02:33:04;56.97;37.93;73.13;;
80580;Laerm;69939;52.402;6.608;2023-09-19T02:35:34;56.74;36.98;71.41;;
80580;Laerm;69939;52.402;6.608;2023-09-19T02:38:03;50.63;38.24;65.82;;
80580;Laerm;69939;52.402;6.608;2023-09-19T02:40:32;64.02;41.57;78.69;;
80580;Laerm;69939;52.402;6.608;2023-09-19T02:43:02;54.12;37.87;71.66;;
80580;Laerm;69939;52.402;6.608;2023-09-19T02:45:33;63.28;37.21;76.43;;
80580;Laerm;69939;52.402;6.608;2023-09-19T02:48:06;57.78;38.73;73.77;;
80580;Laerm;69939;52.402;6.608;2023-09-19T02:50:37;60.50;39.50;74.70;;
80580;Laerm;69939;52.402;6.608;2023-09-19T02:53:06;56.69;38.28;73.63;;
80580;Laerm;69939;52.402;6.608;2023-09-19T02:55:36;61.74;39.26;74.61;;
80580;Laerm;69939;52.402;6.608;2023-09-19T02:58:07;52.52;39.06;66.85;;
80580;Laerm;69939;52.402;6.608;2023-09-19T03:00:37;60.33;40.42;74.79;;
80580;Laerm;69939;52.402;6.608;2023-09-19T03:03:10;61.80;40.55;76.17;;
80580;Laerm;69939;52.402;6.608;2023-09-19T03:05:41;61.64;39.18;75.88;;
80580;Laerm;69939;52.402;6.608;2023-09-19T03:08:12;65.82;41.31;81.39;;
80580;Laerm;69939;52.402;6.608;2023-09-19T03:10:45;62.35;38.81;81.27;;
80580;Laerm;69939;52.402;6.608;2023-09-19T03:13:15;61.83;42.66;76.60;;
80580;Laerm;69939;52.402;6.608;2023-09-19T03:15:44;60.92;39.42;73.78;;
80580;Laerm;69939;52.402;6.608;2023-09-19T03:18:18;61.90;41.48;73.15;;
80580;Laerm;69939;52.402;6.608;2023-09-19T03:20:53;64.14;42.61;75.68;;
80580;Laerm;69939;52.402;6.608;2023-09-19T03:23:23;56.17;41.93;74.38;;
80580;Laerm;69939;52.402;6.608;2023-09-19T03:25:52;64.29;46.56;77.88;;
80580;Laerm;69939;52.402;6.608;2023-09-19T03:28:22;65.42;45.78;76.76;;
80580;Laerm;69939;52.402;6.608;2023-09-19T03:30:59;64.44;44.83;82.14;;
80580;Laerm;69939;52.402;6.608;2023-09-19T03:33:31;64.24;43.99;76.99;;
80580;Laerm;69939;52.402;6.608;2023-09-19T03:36:02;64.12;43.72;75.37;;
80580;Laerm;69939;52.402;6.608;2023-09-19T03:38:33;65.13;45.12;77.61;;
80580;Laerm;69939;52.402;6.608;2023-09-19T03:41:03;63.16;45.91;76.80;;
80580;Laerm;69939;52.402;6.608;2023-09-19T03:43:32;63.63;43.21;75.63;;
80580;Laerm;69939;52.402;6.608;2023-09-19T03:46:01;65.07;48.31;76.01;;
80580;Laerm;69939;52.402;6.608;2023-09-19T03:48:36;62.85;46.07;73.26;;
80580;Laerm;69939;52.402;6.608;2023-09-19T03:51:05;64.83;49.18;74.36;;
80580;Laerm;69939;52.402;6.608;2023-09-19T03:53:34;64.18;45.31;73.89;;
80580;Laerm;69939;52.402;6.608;2023-09-19T03:56:03;65.18;47.15;75.26;;
80580;Laerm;69939;52.402;6.608;2023-09-19T03:58:33;58.56;43.25;70.06;;
80580;Laerm;69939;52.402;6.608;2023-09-19T04:01:05;63.00;45.36;75.42;;
80580;Laerm;69939;52.402;6.608;2023-09-19T04:03:37;65.14;48.75;80.79;;
80580;Laerm;69939;52.402;6.608;2023-09-19T04:06:13;67.76;46.00;78.16;;
80580;Laerm;69939;52.402;6.608;2023-09-19T04:08:43;65.76;49.73;76.48;;
80580;Laerm;69939;52.402;6.608;2023-09-19T04:11:12;65.37;44.90;78.19;;
80580;Laerm;69939;52.402;6.608;2023-09-19T04:13:42;65.88;47.33;74.44;;
80580;Laerm;69939;52.402;6.608;2023-09-19T04:16:11;65.12;44.96;75.06;;
80580;Laerm;69939;52.402;6.608;2023-09-19T04:18:43;66.24;48.70;77.26;;
80580;Laerm;69939;52.402;6.608;2023-09-19T04:21:12;64.76;47.27;75.84;;
80580;Laerm;69939;52.402;6.608;2023-09-19T04:23:41;65.61;49.79;75.83;;
80580;Laerm;69939;52.402;6.608;2023-09-19T04:26:11;66.53;50.07;74.57;;
80580;Laerm;69939;52.402;6.608;2023-09-19T04:28:42;63.77;45.82;72.66;;
80580;Laerm;69939;52.402;6.608;2023-09-19T04:31:11;64.29;45.85;74.10;;
80580;Laerm;69939;52.402;6.608;2023-09-19T04:33:43;66.40;49.70;74.56;;
80580;Laerm;69939;52.402;6.608;2023-09-19T04:36:12;66.30;51.18;74.46;;
80580;Laerm;69939;52.402;6.608;2023-09-19T04:38:41;65.77;48.67;73.07;;
80580;Laerm;69939;52.402;6.608;2023-09-19T04:41:10;68.60;51.58;81.65;;
80580;Laerm;69939;52.402;6.608;2023-09-19T04:43:41;68.03;47.62;78.42;;
80580;Laerm;69939;52.402;6.608;2023-09-19T04:46:12;66.90;50.59;77.52;;
80580;Laerm;69939;52.402;6.608;2023-09-19T04:48:46;67.25;48.96;75.06;;
80580;Laerm;69939;52.402;6.608;2023-09-19T04:51:15;64.96;48.27;73.01;;
80580;Laerm;69939;52.402;6.608;2023-09-19T04:53:45;67.87;52.68;74.09;;
80580;Laerm;69939;52.402;6.608;2023-09-19T04:56:14;66.66;50.89;76.19;;
80580;Laerm;69939;52.402;6.608;2023-09-19T04:58:45;67.81;51.65;77.33;;
80580;Laerm;69939;52.402;6.608;2023-09-19T05:01:14;67.66;51.91;74.48;;
80580;Laerm;69939;52.402;6.608;2023-09-19T05:03:46;69.29;51.77;84.87;;
80580;Laerm;69939;52.402;6.608;2023-09-19T05:06:18;67.67;52.10;75.17;;
80580;Laerm;69939;52.402;6.608;2023-09-19T05:08:46;67.85;53.20;74.68;;
80580;Laerm;69939;52.402;6.608;2023-09-19T05:11:18;66.55;49.34;77.34;;
80580;Laerm;69939;52.402;6.608;2023-09-19T05:13:48;68.34;53.15;80.25;;
80580;Laerm;69939;52.402;6.608;2023-09-19T05:16:18;69.17;51.03;80.15;;
80580;Laerm;69939;52.402;6.608;2023-09-19T05:18:50;68.19;53.63;76.81;;
80580;Laerm;69939;52.402;6.608;2023-09-19T05:21:19;67.54;51.29;74.01;;
80580;Laerm;69939;52.402;6.608;2023-09-19T05:23:48;69.54;51.38;80.79;;
80580;Laerm;69939;52.402;6.608;2023-09-19T05:26:20;67.99;50.16;76.91;;
80580;Laerm;69939;52.402;6.608;2023-09-19T05:28:49;67.95;56.57;74.40;;
80580;Laerm;69939;52.402;6.608;2023-09-19T05:31:18;68.02;54.19;73.55;;
80580;Laerm;69939;52.402;6.608;2023-09-19T05:33:51;68.36;55.98;76.42;;
80580;Laerm;69939;52.402;6.608;2023-09-19T05:36:20;67.83;53.21;75.05;;
80580;Laerm;69939;52.402;6.608;2023-09-19T05:38:50;68.05;54.78;74.39;;
80580;Laerm;69939;52.402;6.608;2023-09-19T05:41:19;69.34;55.93;83.22;;
80580;Laerm;69939;52.402;6.608;2023-09-19T05:43:49;68.96;52.49;82.75;;
80580;Laerm;69939;52.402;6.608;2023-09-19T05:46:18;68.44;56.51;74.73;;
80580;Laerm;69939;52.402;6.608;2023-09-19T05:48:47;69.51;52.94;81.07;;
80580;Laerm;69939;52.402;6.608;2023-09-19T05:51:19;68.78;52.93;77.38;;
80580;Laerm;69939;52.402;6.608;2023-09-19T05:53:48;68.42;53.76;81.35;;
80580;Laerm;69939;52.402;6.608;2023-09-19T05:56:20;66.83;52.09;75.27;;
80580;Laerm;69939;52.402;6.608;2023-09-19T05:58:49;66.75;52.57;74.98;;
80580;Laerm;69939;52.402;6.608;2023-09-19T06:01:18;67.75;49.35;80.10;;
80580;Laerm;69939;52.402;6.608;2023-09-19T06:03:48;67.44;51.02;82.26;;
80580;Laerm;69939;52.402;6.608;2023-09-19T06:06:21;66.86;48.58;78.28;;
80580;Laerm;69939;52.402;6.608;2023-09-19T06:08:50;68.00;49.39;76.86;;
80580;Laerm;69939;52.402;6.608;2023-09-19T06:11:18;66.89;51.39;73.81;;
80580;Laerm;69939;52.402;6.608;2023-09-19T06:13:51;66.34;49.60;75.15;;
80580;Laerm;69939;52.402;6.608;2023-09-19T06:16:20;65.46;51.86;76.61;;
80580;Laerm;69939;52.402;6.608;2023-09-19T06:18:49;68.44;52.14;82.58;;
80580;Laerm;69939;52.402;6.608;2023-09-19T06:21:21;68.95;55.01;80.88;;
80580;Laerm;69939;52.402;6.608;2023-09-19T06:23:50;67.68;51.09;76.83;;
80580;Laerm;69939;52.402;6.608;2023-09-19T06:26:27;68.22;53.32;82.47;;
80580;Laerm;69939;52.402;6.608;2023-09-19T06:28:57;66.83;51.66;75.86;;
80580;Laerm;69939;52.402;6.608;2023-09-19T06:31:32;67.13;51.90;81.05;;
80580;Laerm;69939;52.402;6.608;2023-09-19T06:34:01;68.63;52.18;80.28;;
80580;Laerm;69939;52.402;6.608;2023-09-19T06:36:33;66.78;54.24;74.11;;
80580;Laerm;69939;52.402;6.608;2023-09-19T06:39:03;68.35;51.03;76.05;;
80580;Laerm;69939;52.402;6.608;2023-09-19T06:41:32;69.51;52.44;79.72;;
80580;Laerm;69939;52.402;6.608;2023-09-19T06:44:01;69.60;52.46;85.27;;
80580;Laerm;69939;52.402;6.608;2023-09-19T06:46:31;65.85;49.29;73.95;;
80580;Laerm;69939;52.402;6.608;2023-09-19T06:49:00;68.60;49.41;77.04;;
80580;Laerm;69939;52.402;6.608;2023-09-19T06:51:34;66.46;47.65;76.09;;
80580;Laerm;69939;52.402;6.608;2023-09-19T06:54:04;66.44;48.03;78.82;;
80580;Laerm;69939;52.402;6.608;2023-09-19T06:56:33;69.50;48.76;85.34;;
80580;Laerm;69939;52.402;6.608;2023-09-19T06:59:02;67.81;50.46;78.86;;
80580;Laerm;69939;52.402;6.608;2023-09-19T07:01:32;65.85;51.80;73.49;;
80580;Laerm;69939;52.402;6.608;2023-09-19T07:04:04;66.48;48.30;77.35;;
80580;Laerm;69939;52.402;6.608;2023-09-19T07:06:35;65.93;49.05;75.92;;
80580;Laerm;69939;52.402;6.608;2023-09-19T07:09:05;65.63;48.68;79.43;;
80580;Laerm;69939;52.402;6.608;2023-09-19T07:11:35;64.53;47.01;82.69;;
80580;Laerm;69939;52.402;6.608;2023-09-19T07:14:04;66.71;49.87;77.58;;
80580;Laerm;69939;52.402;6.608;2023-09-19T07:16:36;68.73;49.46;86.28;;
80580;Laerm;69939;52.402;6.608;2023-09-19T07:19:08;65.71;50.66;78.66;;
80580;Laerm;69939;52.402;6.608;2023-09-19T07:21:39;66.61;52.26;78.18;;
80580;Laerm;69939;52.402;6.608;2023-09-19T07:24:09;66.47;48.12;75.67;;
80580;Laerm;69939;52.402;6.608;2023-09-19T07:26:39;65.14;49.38;74.71;;
80580;Laerm;69939;52.402;6.608;2023-09-19T07:29:08;68.58;50.09;85.50;;
80580;Laerm;69939;52.402;6.608;2023-09-19T07:31:37;67.33;54.03;74.91;;
80580;Laerm;69939;52.402;6.608;2023-09-19T07:34:06;66.04;48.43;83.28;;
80580;Laerm;69939;52.402;6.608;2023-09-19T07:36:35;67.01;51.09;78.09;;
80580;Laerm;69939;52.402;6.608;2023-09-19T07:39:08;65.94;47.47;77.30;;
80580;Laerm;69939;52.402;6.608;2023-09-19T07:41:37;67.87;51.81;82.29;;
80580;Laerm;69939;52.402;6.608;2023-09-19T07:44:07;65.18;49.54;75.54;;
80580;Laerm;69939;52.402;6.608;2023-09-19T07:46:37;67.15;49.22;78.33;;
80580;Laerm;69939;52.402;6.608;2023-09-19T07:49:06;67.44;52.37;81.64;;
80580;Laerm;69939;52.402;6.608;2023-09-19T07:51:35;67.87;53.45;82.82;;
80580;Laerm;69939;52.402;6.608;2023-09-19T07:54:08;68.44;53.26;81.76;;
80580;Laerm;69939;52.402;6.608;2023-09-19T07:56:37;66.91;53.02;75.20;;
80580;Laerm;69939;52.402;6.608;2023-09-19T07:59:06;66.84;50.16;79.31;;
80580;Laerm;69939;52.402;6.608;2023-09-19T08:01:35;69.34;54.04;85.96;;
80580;Laerm;69939;52.402;6.608;2023-09-19T08:04:05;67.76;49.17;80.35;;
80580;Laerm;69939;52.402;6.608;2023-09-19T08:06:34;66.74;50.94;77.20;;
80580;Laerm;69939;52.402;6.608;2023-09-19T08:09:04;65.81;50.37;78.62;;
80580;Laerm;69939;52.402;6.608;2023-09-19T08:11:39;69.80;54.42;90.97;;
80580;Laerm;69939;52.402;6.608;2023-09-19T08:14:08;68.63;52.57;81.93;;
80580;Laerm;69939;52.402;6.608;2023-09-19T08:16:39;64.62;48.79;78.13;;
80580;Laerm;69939;52.402;6.608;2023-09-19T08:19:09;72.32;52.39;89.50;;
80580;Laerm;69939;52.402;6.608;2023-09-19T08:21:39;66.59;50.80;79.17;;
80580;Laerm;69939;52.402;6.608;2023-09-19T08:24:11;66.42;52.32;82.04;;
80580;Laerm;69939;52.402;6.608;2023-09-19T08:26:43;70.74;51.85;91.48;;
80580;Laerm;69939;52.402;6.608;2023-09-19T08:29:12;66.19;50.50;79.57;;
80580;Laerm;69939;52.402;6.608;2023-09-19T08:31:41;65.06;47.17;83.24;;
80580;Laerm;69939;52.402;6.608;2023-09-19T08:34:10;68.41;53.30;85.24;;
80580;Laerm;69939;52.402;6.608;2023-09-19T08:36:39;67.40;52.07;78.96;;
80580;Laerm;69939;52.402;6.608;2023-09-19T08:39:09;67.88;50.58;85.37;;
80580;Laerm;69939;52.402;6.608;2023-09-19T08:41:42;68.83;52.82;81.67;;
80580;Laerm;69939;52.402;6.608;2023-09-19T08:44:11;68.60;51.17;87.24;;
80580;Laerm;69939;52.402;6.608;2023-09-19T08:46:42;74.15;52.19;96.31;;
80580;Laerm;69939;52.402;6.608;2023-09-19T08:49:23;68.50;51.91;84.16;;
80580;Laerm;69939;52.402;6.608;2023-09-19T08:52:06;66.30;50.19;76.50;;
80580;Laerm;69939;52.402;6.608;2023-09-19T08:54:39;65.43;52.89;75.57;;
80580;Laerm;69939;52.402;6.608;2023-09-19T08:57:11;67.91;51.55;80.07;;
80580;Laerm;69939;52.402;6.608;2023-09-19T08:59:47;69.61;54.46;88.13;;
80580;Laerm;69939;52.402;6.608;2023-09-19T09:02:19;65.23;47.25;76.40;;
80580;Laerm;69939;52.402;6.608;2023-09-19T09:04:50;68.11;50.03;82.59;;
80580;Laerm;69939;52.402;6.608;2023-09-19T09:07:20;71.85;52.50;86.63;;
80580;Laerm;69939;52.402;6.608;2023-09-19T09:09:50;65.72;51.08;83.83;;
80580;Laerm;69939;52.402;6.608;2023-09-19T09:12:23;70.24;52.40;88.64;;
80580;Laerm;69939;52.402;6.608;2023-09-19T09:14:52;70.27;52.79;84.69;;
80580;Laerm;69939;52.402;6.608;2023-09-19T09:17:23;67.56;50.22;82.00;;
80580;Laerm;69939;52.402;6.608;2023-09-19T09:19:52;69.02;50.86;84.41;;
80580;Laerm;69939;52.402;6.608;2023-09-19T09:22:22;68.75;53.86;86.60;;
80580;Laerm;69939;52.402;6.608;2023-09-19T09:24:53;67.04;51.24;78.18;;
80580;Laerm;69939;52.402;6.608;2023-09-19T09:27:26;72.14;55.05;88.18;;
80580;Laerm;69939;52.402;6.608;2023-09-19T09:29:55;72.06;53.13;91.77;;
80580;Laerm;69939;52.402;6.608;2023-09-19T09:32:26;70.69;54.38;85.11;;
80580;Laerm;69939;52.402;6.608;2023-09-19T09:35:01;68.03;53.98;81.76;;
80580;Laerm;69939;52.402;6.608;2023-09-19T09:37:30;70.18;53.11;88.12;;
80580;Laerm;69939;52.402;6.608;2023-09-19T09:40:06;69.46;49.00;83.21;;
80580;Laerm;69939;52.402;6.608;2023-09-19T09:42:52;70.98;52.57;91.03;;
80580;Laerm;69939;52.402;6.608;2023-09-19T09:45:24;69.51;55.57;83.48;;
80580;Laerm;69939;52.402;6.608;2023-09-19T09:48:04;69.96;50.68;86.69;;
80580;Laerm;69939;52.402;6.608;2023-09-19T09:50:47;68.74;54.33;82.59;;
80580;Laerm;69939;52.402;6.608;2023-09-19T09:53:23;72.43;51.36;89.28;;
80580;Laerm;69939;52.402;6.608;2023-09-19T09:56:01;70.54;51.23;88.11;;
80580;Laerm;69939;52.402;6.608;2023-09-19T09:58:35;67.91;56.11;84.04;;
80580;Laerm;69939;52.402;6.608;2023-09-19T10:01:06;68.51;53.90;83.02;;
80580;Laerm;69939;52.402;6.608;2023-09-19T10:03:43;68.78;53.25;86.73;;
80580;Laerm;69939;52.402;6.608;2023-09-19T10:06:15;67.48;54.15;82.24;;
80580;Laerm;69939;52.402;6.608;2023-09-19T10:09:02;67.36;51.42;82.79;;
80580;Laerm;69939;52.402;6.608;2023-09-19T10:11:44;72.74;53.17;89.16;;
80580;Laerm;69939;52.402;6.608;2023-09-19T10:14:16;69.90;53.14;82.88;;
80580;Laerm;69939;52.402;6.608;2023-09-19T10:16:49;67.00;51.37;80.01;;
80580;Laerm;69939;52.402;6.608;2023-09-19T10:19:29;66.59;49.73;79.39;;
80580;Laerm;69939;52.402;6.608;2023-09-19T10:22:02;69.83;52.68;87.66;;
80580;Laerm;69939;52.402;6.608;2023-09-19T10:24:36;66.58;50.29;86.95;;
80580;Laerm;69939;52.402;6.608;2023-09-19T10:27:07;70.73;55.92;86.65;;
80580;Laerm;69939;52.402;6.608;2023-09-19T10:29:44;68.57;49.89;83.20;;
80580;Laerm;69939;52.402;6.608;2023-09-19T10:32:16;66.57;49.27;85.25;;
80580;Laerm;69939;52.402;6.608;2023-09-19T10:34:47;69.51;54.10;85.55;;
80580;Laerm;69939;52.402;6.608;2023-09-19T10:37:18;73.18;53.28;89.39;;
80580;Laerm;69939;52.402;6.608;2023-09-19T10:39:53;67.97;51.37;88.08;;
80580;Laerm;69939;52.402;6.608;2023-09-19T10:42:25;66.05;49.49;76.62;;
80580;Laerm;69939;52.402;6.608;2023-09-19T10:45:01;66.58;51.48;83.14;;
80580;Laerm;69939;52.402;6.608;2023-09-19T10:47:33;67.28;50.54;76.81;;
80580;Laerm;69939;52.402;6.608;2023-09-19T10:50:05;66.09;50.17;76.93;;
80580;Laerm;69939;52.402;6.608;2023-09-19T10:52:41;66.26;51.56;79.29;;
80580;Laerm;69939;52.402;6.608;2023-09-19T10:55:17;65.76;53.01;79.22;;
80580;Laerm;69939;52.402;6.608;2023-09-19T10:57:49;67.41;52.38;84.77;;
80580;Laerm;69939;52.402;6.608;2023-09-19T11:00:21;70.74;55.01;85.38;;
80580;Laerm;69939;52.402;6.608;2023-09-19T11:03:17;68.59;56.17;81.82;;
80580;Laerm;69939;52.402;6.608;2023-09-19T11:06:05;67.82;53.11;82.39;;
80580;Laerm;69939;52.402;6.608;2023-09-19T11:08:54;73.50;54.91;92.65;;
80580;Laerm;69939;52.402;6.608;2023-09-19T11:11:45;73.88;53.33;91.98;;
80580;Laerm;69939;52.402;6.608;2023-09-19T11:14:40;73.36;51.91;91.92;;
80580;Laerm;69939;52.402;6.608;2023-09-19T11:17:43;71.00;52.53;92.65;;
80580;Laerm;69939;52.402;6.608;2023-09-19T11:20:23;65.79;52.78;75.11;;
80580;Laerm;69939;52.402;6.608;2023-09-19T11:23:20;72.80;51.04;91.28;;
80580;Laerm;69939;52.402;6.608;2023-09-19T11:25:53;71.62;54.13;86.54;;
80580;Laerm;69939;52.402;6.608;2023-09-19T11:28:34;69.99;53.75;86.65;;
80580;Laerm;69939;52.402;6.608;2023-09-19T11:34:46;76.02;51.87;99.98;;
80580;Laerm;69939;52.402;6.608;2023-09-19T11:38:00;68.71;52.39;83.92;;
80580;Laerm;69939;52.402;6.608;2023-09-19T11:40:36;67.16;51.33;84.06;;
80580;Laerm;69939;52.402;6.608;2023-09-19T11:43:30;66.68;52.74;80.25;;
80580;Laerm;69939;52.402;6.608;2023-09-19T11:46:05;67.92;53.22;83.76;;
80580;Laerm;69939;52.402;6.608;2023-09-19T11:48:33;70.96;52.29;89.71;;
80580;Laerm;69939;52.402;6.608;2023-09-19T11:51:20;71.81;55.34;87.32;;
80580;Laerm;69939;52.402;6.608;2023-09-19T11:53:57;71.96;54.27;88.94;;
80580;Laerm;69939;52.402;6.608;2023-09-19T11:56:28;76.07;58.38;96.96;;
80580;Laerm;69939;52.402;6.608;2023-09-19T11:58:57;77.09;58.88;92.93;;
80580;Laerm;69939;52.402;6.608;2023-09-19T12:01:32;70.62;56.02;87.50;;
80580;Laerm;69939;52.402;6.608;2023-09-19T12:04:03;71.06;56.60;89.85;;
80580;Laerm;69939;52.402;6.608;2023-09-19T12:06:35;80.38;52.96;97.59;;
80580;Laerm;69939;52.402;6.608;2023-09-19T12:09:04;70.90;56.61;88.53;;
80580;Laerm;69939;52.402;6.608;2023-09-19T12:11:42;75.81;54.50;95.70;;
80580;Laerm;69939;52.402;6.608;2023-09-19T12:14:22;71.05;57.46;87.50;;
80580;Laerm;69939;52.402;6.608;2023-09-19T12:16:55;72.94;52.19;95.07;;
80580;Laerm;69939;52.402;6.608;2023-09-19T12:19:26;74.03;56.10;92.59;;
80580;Laerm;69939;52.402;6.608;2023-09-19T12:22:00;67.04;53.26;78.29;;
80580;Laerm;69939;52.402;6.608;2023-09-19T12:24:32;70.75;54.23;86.06;;
80580;Laerm;69939;52.402;6.608;2023-09-19T12:27:06;72.08;53.18;86.39;;
80580;Laerm;69939;52.402;6.608;2023-09-19T12:29:44;72.66;56.11;89.15;;
80580;Laerm;69939;52.402;6.608;2023-09-19T12:32:14;82.07;55.59;100.07;;
80580;Laerm;69939;52.402;6.608;2023-09-19T12:34:53;73.95;56.14;94.32;;
80580;Laerm;69939;52.402;6.608;2023-09-19T12:37:25;76.16;59.18;93.62;;
80580;Laerm;69939;52.402;6.608;2023-09-19T12:40:05;76.87;60.13;92.79;;
80580;Laerm;69939;52.402;6.608;2023-09-19T12:42:43;69.53;53.46;86.20;;
80580;Laerm;69939;52.402;6.608;2023-09-19T12:45:14;69.71;55.29;83.12;;
80580;Laerm;69939;52.402;6.608;2023-09-19T12:48:23;71.38;53.68;89.60;;
80580;Laerm;69939;52.402;6.608;2023-09-19T12:51:05;69.99;54.33;85.65;;
80580;Laerm;69939;52.402;6.608;2023-09-19T12:53:40;68.24;53.52;86.18;;
80580;Laerm;69939;52.402;6.608;2023-09-19T12:56:12;68.62;54.75;82.91;;
80580;Laerm;69939;52.402;6.608;2023-09-19T12:58:52;69.44;50.73;89.71;;
80580;Laerm;69939;52.402;6.608;2023-09-19T13:01:23;75.97;49.81;96.56;;
80580;Laerm;69939;52.402;6.608;2023-09-19T13:04:14;76.49;54.32;93.75;;
80580;Laerm;69939;52.402;6.608;2023-09-19T13:06:45;70.86;55.68;87.10;;
80580;Laerm;69939;52.402;6.608;2023-09-19T13:09:19;75.59;58.46;96.77;;
80580;Laerm;69939;52.402;6.608;2023-09-19T13:11:50;80.17;61.18;97.17;;
80580;Laerm;69939;52.402;6.608;2023-09-19T13:14:22;74.19;56.41;93.18;;
80580;Laerm;69939;52.402;6.608;2023-09-19T13:16:59;71.27;51.72;92.87;;
80580;Laerm;69939;52.402;6.608;2023-09-19T13:19:42;70.88;53.76;92.13;;
80580;Laerm;69939;52.402;6.608;2023-09-19T13:22:39;74.16;57.61;91.31;;
80580;Laerm;69939;52.402;6.608;2023-09-19T13:25:14;68.39;53.45;83.86;;
80580;Laerm;69939;52.402;6.608;2023-09-19T13:27:45;72.12;54.82;91.50;;
80580;Laerm;69939;52.402;6.608;2023-09-19T13:30:17;71.29;57.25;94.35;;
80580;Laerm;69939;52.402;6.608;2023-09-19T13:32:47;69.03;51.52;86.18;;
80580;Laerm;69939;52.402;6.608;2023-09-19T13:35:16;71.01;52.08;89.64;;
80580;Laerm;69939;52.402;6.608;2023-09-19T13:37:47;70.01;57.18;86.05;;
80580;Laerm;69939;52.402;6.608;2023-09-19T13:40:20;67.12;55.16;78.04;;
80580;Laerm;69939;52.402;6.608;2023-09-19T13:42:49;69.50;52.73;85.12;;
80580;Laerm;69939;52.402;6.608;2023-09-19T13:45:19;67.32;54.69;81.85;;
80580;Laerm;69939;52.402;6.608;2023-09-19T13:47:50;68.27;52.98;79.42;;
80580;Laerm;69939;52.402;6.608;2023-09-19T13:50:19;67.61;54.19;84.56;;
80580;Laerm;69939;52.402;6.608;2023-09-19T13:52:49;70.02;55.97;86.87;;
80580;Laerm;69939;52.402;6.608;2023-09-19T13:55:22;72.27;56.98;89.00;;
80580;Laerm;69939;52.402;6.608;2023-09-19T13:57:51;71.82;58.98;90.00;;
80580;Laerm;69939;52.402;6.608;2023-09-19T14:00:22;66.89;53.18;84.34;;
80580;Laerm;69939;52.402;6.608;2023-09-19T14:02:51;68.60;51.58;85.64;;
80580;Laerm;69939;52.402;6.608;2023-09-19T14:05:21;66.97;54.59;81.54;;
80580;Laerm;69939;52.402;6.608;2023-09-19T14:07:52;69.70;54.21;82.84;;
80580;Laerm;69939;52.402;6.608;2023-09-19T14:10:24;68.13;52.81;84.29;;
80580;Laerm;69939;52.402;6.608;2023-09-19T14:12:55;72.79;54.68;94.37;;
80580;Laerm;69939;52.402;6.608;2023-09-19T14:15:25;72.02;55.23;91.75;;
80580;Laerm;69939;52.402;6.608;2023-09-19T14:17:58;72.57;55.21;89.05;;
80580;Laerm;69939;52.402;6.608;2023-09-19T14:20:28;67.92;55.83;79.59;;